createdAt,value
2018-06-17T00:00:57.263Z,21.10
2018-06-17T00:04:00.912Z,21.10
2018-06-17T00:07:04.872Z,21.10
2018-06-17T00:10:08.489Z,21.10
2018-06-17T00:13:12.114Z,21.00
2018-06-17T00:16:15.955Z,21.00
2018-06-17T00:19:19.569Z,20.90
2018-06-17T00:22:23.206Z,20.80
2018-06-17T00:25:26.910Z,20.80
2018-06-17T00:28:30.545Z,20.70
2018-06-17T00:31:34.165Z,20.70
2018-06-17T00:34:37.801Z,20.60
2018-06-17T00:37:41.422Z,20.50
2018-06-17T00:40:45.092Z,20.40
2018-06-17T00:43:48.721Z,20.40
2018-06-17T00:46:52.398Z,20.30
2018-06-17T00:49:56.025Z,20.30
2018-06-17T00:52:59.686Z,20.30
2018-06-17T00:56:03.310Z,20.20
2018-06-17T01:02:10.298Z,20.20
2018-06-17T01:05:14.055Z,20.20
2018-06-17T01:08:17.678Z,20.10
2018-06-17T01:11:21.310Z,20.10
2018-06-17T01:14:24.928Z,20.00
2018-06-17T01:17:28.565Z,19.90
2018-06-17T01:20:32.183Z,19.80
2018-06-17T01:23:35.809Z,19.80
2018-06-17T01:26:39.490Z,19.80
2018-06-17T01:29:43.109Z,19.70
2018-06-17T01:32:46.765Z,19.60
2018-06-17T01:35:50.378Z,19.50
2018-06-17T01:38:54.031Z,19.40
2018-06-17T01:41:57.644Z,19.40
2018-06-17T01:48:04.689Z,19.20
2018-06-17T01:51:08.322Z,19.20
2018-06-17T01:54:11.941Z,19.20
2018-06-17T01:57:15.587Z,19.10
2018-06-17T02:00:20.012Z,19.00
2018-06-17T02:03:29.446Z,19.00
2018-06-17T02:06:38.695Z,18.90
2018-06-17T02:09:47.761Z,18.90
2018-06-17T02:12:51.419Z,18.80
2018-06-17T02:15:55.303Z,18.90
2018-06-17T02:18:58.946Z,18.90
2018-06-17T02:25:12.743Z,18.90
2018-06-17T02:34:23.179Z,18.70
2018-06-17T02:37:26.899Z,18.70
2018-06-17T02:40:30.619Z,18.70
2018-06-17T02:43:34.262Z,18.60
2018-06-17T02:46:43.379Z,18.60
2018-06-17T02:52:56.602Z,18.60
2018-06-17T02:56:00.213Z,18.50
2018-06-17T02:59:03.860Z,18.50
2018-06-17T03:02:07.806Z,18.50
2018-06-17T03:05:11.651Z,18.50
2018-06-17T03:11:18.857Z,18.50
2018-06-17T03:17:25.874Z,18.50
2018-06-17T03:20:29.504Z,18.60
2018-06-17T03:23:33.129Z,18.60
2018-06-17T03:30:54.788Z,19.10
2018-06-17T03:33:58.410Z,19.50
2018-06-17T03:37:02.057Z,19.90
2018-06-17T03:40:05.683Z,20.40
2018-06-17T03:43:09.642Z,20.80
2018-06-17T03:46:13.262Z,21.30
2018-06-17T03:49:16.999Z,21.70
2018-06-17T03:52:20.627Z,21.80
2018-06-17T03:58:27.686Z,22.60
2018-06-17T04:01:31.322Z,22.60
2018-06-17T04:07:43.866Z,22.40
2018-06-17T04:10:47.498Z,22.70
2018-06-17T04:13:51.122Z,23.00
2018-06-17T04:16:57.921Z,23.30
2018-06-17T04:20:01.648Z,23.60
2018-06-17T04:23:05.456Z,23.70
2018-06-17T04:26:09.043Z,24.10
2018-06-17T04:29:12.815Z,24.50
2018-06-17T04:32:16.593Z,24.60
2018-06-17T04:35:21.419Z,24.70
2018-06-17T04:38:25.031Z,25.20
2018-06-17T04:41:28.678Z,25.30
2018-06-17T04:44:39.019Z,25.70
2018-06-17T04:47:42.672Z,25.90
2018-06-17T04:50:46.313Z,26.10
2018-06-17T04:53:49.946Z,26.30
2018-06-17T04:56:53.643Z,26.40
2018-06-17T04:59:57.589Z,26.40
2018-06-17T05:03:01.165Z,26.40
2018-06-17T05:06:04.991Z,26.40
2018-06-17T05:12:12.757Z,25.10
2018-06-17T05:15:16.384Z,24.40
2018-06-17T05:18:20.020Z,24.30
2018-06-17T05:21:23.641Z,23.60
2018-06-17T05:24:27.290Z,23.00
2018-06-17T05:27:30.907Z,22.70
2018-06-17T05:33:37.900Z,22.00
2018-06-17T05:36:41.548Z,22.00
2018-06-17T05:39:45.172Z,22.10
2018-06-17T05:42:48.809Z,22.20
2018-06-17T05:48:55.934Z,22.90
2018-06-17T05:55:25.773Z,24.10
2018-06-17T05:58:29.409Z,25.10
2018-06-17T06:01:33.036Z,25.40
2018-06-17T06:04:36.679Z,25.80
2018-06-17T06:07:40.290Z,26.20
2018-06-17T06:10:43.925Z,26.60
2018-06-17T06:13:47.543Z,26.90
2018-06-17T06:16:51.178Z,27.60
2018-06-17T06:19:54.795Z,27.50
2018-06-17T06:22:58.441Z,27.60
2018-06-17T06:26:02.052Z,27.50
2018-06-17T06:29:05.710Z,27.80
2018-06-17T06:32:09.414Z,27.90
2018-06-17T06:35:13.054Z,28.20
2018-06-17T06:38:16.689Z,28.40
2018-06-17T06:41:20.340Z,28.80
2018-06-17T06:44:24.035Z,28.80
2018-06-17T06:47:27.663Z,28.80
2018-06-17T06:50:31.401Z,28.30
2018-06-17T06:53:35.230Z,28.50
2018-06-17T06:56:39.114Z,28.40
2018-06-17T07:02:57.650Z,29.00
2018-06-17T07:06:12.795Z,28.60
2018-06-17T07:13:35.090Z,29.10
2018-06-17T07:16:50.191Z,28.90
2018-06-17T07:22:57.369Z,28.90
2018-06-17T07:26:38.626Z,28.70
2018-06-17T07:29:43.823Z,28.70
2018-06-17T07:32:47.454Z,27.60
2018-06-17T07:35:51.112Z,28.10
2018-06-17T07:41:58.431Z,28.70
2018-06-17T07:45:02.068Z,29.30
2018-06-17T07:48:05.790Z,29.50
2018-06-17T07:51:21.121Z,29.50
2018-06-17T07:54:24.749Z,29.40
2018-06-17T07:57:29.719Z,29.90
2018-06-17T08:00:33.465Z,29.80
2018-06-17T08:03:37.103Z,30.20
2018-06-17T08:06:40.722Z,29.80
2018-06-17T08:09:44.347Z,29.30
2018-06-17T08:12:48.008Z,29.10
2018-06-17T08:15:51.634Z,29.10
2018-06-17T08:18:55.361Z,29.50
2018-06-17T08:21:59.838Z,29.40
2018-06-17T08:25:03.462Z,29.30
2018-06-17T08:28:07.096Z,29.10
2018-06-17T08:31:10.791Z,29.10
2018-06-17T08:34:14.486Z,29.50
2018-06-17T08:40:21.953Z,29.00
2018-06-17T08:49:33.201Z,28.40
2018-06-17T08:52:36.810Z,28.40
2018-06-17T08:55:41.241Z,29.00
2018-06-17T08:58:45.010Z,29.10
2018-06-17T09:01:48.618Z,29.30
2018-06-17T09:04:52.252Z,29.40
2018-06-17T09:07:56.103Z,29.00
2018-06-17T09:10:59.750Z,28.50
2018-06-17T09:17:06.713Z,28.70
2018-06-17T09:20:10.519Z,28.30
2018-06-17T09:23:14.160Z,28.30
2018-06-17T09:26:17.828Z,28.20
2018-06-17T09:29:21.521Z,28.30
2018-06-17T09:32:25.176Z,28.50
2018-06-17T09:35:28.876Z,28.30
2018-06-17T09:38:32.480Z,27.60
2018-06-17T09:44:39.448Z,27.80
2018-06-17T09:47:43.054Z,28.00
2018-06-17T09:50:46.695Z,28.20
2018-06-17T09:53:50.329Z,28.40
2018-06-17T09:56:54.043Z,28.30
2018-06-17T09:59:57.691Z,28.50
2018-06-17T10:06:04.710Z,28.30
2018-06-17T10:09:08.899Z,28.40
2018-06-17T10:15:15.886Z,28.10
2018-06-17T10:21:23.529Z,28.00
2018-06-17T10:24:27.162Z,27.80
2018-06-17T10:27:30.859Z,27.40
2018-06-17T10:30:35.416Z,27.50
2018-06-17T10:33:39.022Z,27.80
2018-06-17T10:36:42.746Z,27.60
2018-06-17T10:39:46.441Z,27.20
2018-06-17T10:45:53.420Z,26.90
2018-06-17T10:48:57.079Z,27.00
2018-06-17T10:55:04.035Z,26.70
2018-06-17T10:58:07.683Z,26.80
2018-06-17T11:01:11.326Z,27.00
2018-06-17T11:05:18.381Z,26.70
2018-06-17T11:08:21.987Z,26.50
2018-06-17T11:11:25.688Z,26.70
2018-06-17T11:14:29.313Z,26.90
2018-06-17T11:17:32.955Z,26.90
2018-06-17T11:20:36.582Z,27.40
2018-06-17T11:23:40.189Z,27.60
2018-06-17T11:26:43.813Z,27.80
2018-06-17T11:29:47.414Z,27.70
2018-06-17T11:32:51.055Z,27.80
2018-06-17T11:38:58.371Z,27.80
2018-06-17T11:42:02.068Z,27.70
2018-06-17T11:45:05.683Z,27.70
2018-06-17T11:48:09.320Z,27.60
2018-06-17T11:51:13.032Z,27.60
2018-06-17T11:54:16.661Z,27.70
2018-06-17T11:57:20.423Z,27.70
2018-06-17T12:00:24.042Z,27.60
2018-06-17T12:03:27.683Z,27.10
2018-06-17T12:09:34.681Z,27.30
2018-06-17T12:12:38.286Z,27.30
2018-06-17T12:18:46.059Z,27.30
2018-06-17T12:21:49.735Z,27.20
2018-06-17T12:24:53.410Z,27.10
2018-06-17T12:27:57.089Z,27.10
2018-06-17T12:31:00.664Z,27.30
2018-06-17T12:37:07.655Z,27.30
